This is the latest recevied weather packets stored in our database for station/object VA7NEZ. If no packets are shown the sender has not sent any weather packets the latest 1 day(s).
| Time | Temp. | Humidity | Pressure | Rain* | Wind** | Luminosity | Snow |
|---|---|---|---|---|---|---|---|
| 1777984297 | 7.22° C | 69% | 1014 hPa | 0 mm | 0 m/s | - | - |
| 1777983737 | 7.78° C | 69% | 1013.8 hPa | 0 mm | 0 m/s | - | - |
| 1777983137 | 7.78° C | 71% | 1013.7 hPa | 0 mm | 0 m/s | - | - |
| 1777982596 | 0° C | 100% | 1013.8 hPa | 0 mm | 0 m/s | - | - |
| 1777982107 | 0° C | 100% | 1013.7 hPa | 0 mm | 0 m/s | - | - |
| 1777981562 | 0° C | 100% | 1013.5 hPa | 0 mm | 0 m/s | - | - |
| 1777981077 | 8.33° C | 67% | 1013.5 hPa | 0 mm | 0 m/s | - | - |
| 1777980587 | 0° C | 100% | 1013.5 hPa | 0 mm | 0 m/s | - | - |
| 1777980067 | 8.33° C | 67% | 1013.4 hPa | 0 mm | 0 m/s | - | - |
| 1777979563 | 0° C | 100% | 1013.4 hPa | 0 mm | 0 m/s | - | - |
| 1777978982 | 8.89° C | 67% | 1013.4 hPa | 0 mm | 0 m/s | - | - |
| 1777977932 | 8.89° C | 68% | 1013.1 hPa | 0 mm | 0 m/s | - | - |
| 1777977411 | 8.89° C | 70% | 1013.3 hPa | 0 mm | 0 m/s | - | - |
| 1777976821 | 0° C | 100% | 1013.3 hPa | 0 mm | 0 m/s | - | - |
| 1777976331 | 0° C | 100% | 1013.1 hPa | 0 mm | 0 m/s | - | - |
| 1777975777 | 10° C | 74% | 1012.8 hPa | 0 mm | 0 m/s | - | - |
| 1777975261 | 10° C | 64% | 1012.9 hPa | 0 mm | 0 m/s | - | - |
| 1777974756 | 0° C | 100% | 1012.8 hPa | 0 mm | 0 m/s | - | - |
| 1777974246 | 10.56° C | 62% | 1012.9 hPa | 0 mm | 0 m/s | - | - |
| 1777973652 | 10.56° C | 58% | 1012.7 hPa | 0 mm | 0 m/s | - | - |
| 1777973156 | 11.11° C | 58% | 1012.6 hPa | 0 mm | 0 m/s | - | - |
| 1777972596 | 11.11° C | 58% | 1012.6 hPa | 0 mm | 0 m/s | - | - |
| 1777972031 | 11.67° C | 59% | 1012.6 hPa | 0 mm | 0 m/s | - | - |
| 1777971476 | 11.67° C | 60% | 1012.4 hPa | 0 mm | 0 m/s | - | - |
| 1777970931 | 0° C | 100% | 1012.3 hPa | 0 mm | 0 m/s | - | - |
* Rain latest hour (hover to see other rain measurements)
** Current wind speed in m/s (hover to see current wind gust speed)